sensor_id;sensor_type;location;lat;lon;timestamp;temperature;humidity
21047;DHT22;10682;50.874;3.656;2024-01-15T00:00:00;2.60;99.90
21047;DHT22;10682;50.874;3.656;2024-01-15T00:02:28;2.50;99.90
21047;DHT22;10682;50.874;3.656;2024-01-15T00:04:55;2.50;99.90
21047;DHT22;10682;50.874;3.656;2024-01-15T00:07:22;2.50;99.90
21047;DHT22;10682;50.874;3.656;2024-01-15T00:09:49;2.40;99.90
21047;DHT22;10682;50.874;3.656;2024-01-15T00:12:16;2.30;99.90
21047;DHT22;10682;50.874;3.656;2024-01-15T00:14:43;2.30;99.90
21047;DHT22;10682;50.874;3.656;2024-01-15T00:17:14;2.30;99.90
21047;DHT22;10682;50.874;3.656;2024-01-15T00:19:41;2.30;99.90
21047;DHT22;10682;50.874;3.656;2024-01-15T00:22:09;2.30;99.90
21047;DHT22;10682;50.874;3.656;2024-01-15T00:24:37;2.30;99.90
21047;DHT22;10682;50.874;3.656;2024-01-15T00:30:36;2.30;99.90
21047;DHT22;10682;50.874;3.656;2024-01-15T00:33:22;2.30;99.90
21047;DHT22;10682;50.874;3.656;2024-01-15T00:35:49;2.30;99.90
21047;DHT22;10682;50.874;3.656;2024-01-15T00:38:16;2.30;99.90
21047;DHT22;10682;50.874;3.656;2024-01-15T00:40:43;2.30;99.90
21047;DHT22;10682;50.874;3.656;2024-01-15T00:43:10;2.40;99.90
21047;DHT22;10682;50.874;3.656;2024-01-15T00:45:38;2.50;99.90
21047;DHT22;10682;50.874;3.656;2024-01-15T00:48:05;2.50;99.90
21047;DHT22;10682;50.874;3.656;2024-01-15T00:50:32;2.50;99.90
21047;DHT22;10682;50.874;3.656;2024-01-15T00:52:59;2.50;99.90
21047;DHT22;10682;50.874;3.656;2024-01-15T00:55:28;2.50;99.90
21047;DHT22;10682;50.874;3.656;2024-01-15T00:57:56;2.50;99.90
21047;DHT22;10682;50.874;3.656;2024-01-15T01:00:23;2.50;99.90
21047;DHT22;10682;50.874;3.656;2024-01-15T01:02:50;2.40;99.90
21047;DHT22;10682;50.874;3.656;2024-01-15T01:05:17;2.50;99.90
21047;DHT22;10682;50.874;3.656;2024-01-15T01:07:44;2.50;99.90
21047;DHT22;10682;50.874;3.656;2024-01-15T01:10:13;2.40;99.90
21047;DHT22;10682;50.874;3.656;2024-01-15T01:12:40;2.40;99.90
21047;DHT22;10682;50.874;3.656;2024-01-15T01:15:10;2.50;99.90
21047;DHT22;10682;50.874;3.656;2024-01-15T01:17:37;2.50;99.90
21047;DHT22;10682;50.874;3.656;2024-01-15T01:20:07;2.50;99.90
21047;DHT22;10682;50.874;3.656;2024-01-15T01:22:36;2.40;99.90
21047;DHT22;10682;50.874;3.656;2024-01-15T01:25:03;2.50;99.90
21047;DHT22;10682;50.874;3.656;2024-01-15T01:27:31;2.50;99.90
21047;DHT22;10682;50.874;3.656;2024-01-15T01:29:58;2.50;99.90
21047;DHT22;10682;50.874;3.656;2024-01-15T01:32:25;2.50;99.90
21047;DHT22;10682;50.874;3.656;2024-01-15T01:34:52;2.40;99.90
21047;DHT22;10682;50.874;3.656;2024-01-15T01:37:20;2.40;99.90
21047;DHT22;10682;50.874;3.656;2024-01-15T01:39:47;2.40;99.90
21047;DHT22;10682;50.874;3.656;2024-01-15T01:42:14;2.40;99.90
21047;DHT22;10682;50.874;3.656;2024-01-15T01:44:41;2.30;99.90
21047;DHT22;10682;50.874;3.656;2024-01-15T01:47:08;2.30;99.90
21047;DHT22;10682;50.874;3.656;2024-01-15T01:49:37;2.30;99.90
21047;DHT22;10682;50.874;3.656;2024-01-15T01:52:05;2.30;99.90
21047;DHT22;10682;50.874;3.656;2024-01-15T01:54:34;2.30;99.90
21047;DHT22;10682;50.874;3.656;2024-01-15T01:57:03;2.30;99.90
21047;DHT22;10682;50.874;3.656;2024-01-15T01:59:32;2.30;99.90
21047;DHT22;10682;50.874;3.656;2024-01-15T02:02:02;2.30;99.90
21047;DHT22;10682;50.874;3.656;2024-01-15T02:04:31;2.30;99.90
21047;DHT22;10682;50.874;3.656;2024-01-15T02:07:00;2.30;99.90
21047;DHT22;10682;50.874;3.656;2024-01-15T02:12:43;2.30;99.90
21047;DHT22;10682;50.874;3.656;2024-01-15T02:15:18;2.40;99.90
21047;DHT22;10682;50.874;3.656;2024-01-15T02:20:27;2.60;99.90
21047;DHT22;10682;50.874;3.656;2024-01-15T02:25:43;2.60;99.90
21047;DHT22;10682;50.874;3.656;2024-01-15T02:28:14;2.70;99.90
21047;DHT22;10682;50.874;3.656;2024-01-15T02:30:43;2.70;99.90
21047;DHT22;10682;50.874;3.656;2024-01-15T02:33:11;2.70;99.90
21047;DHT22;10682;50.874;3.656;2024-01-15T02:35:39;2.70;99.90
21047;DHT22;10682;50.874;3.656;2024-01-15T02:38:07;2.70;99.90
21047;DHT22;10682;50.874;3.656;2024-01-15T02:40:35;2.80;99.90
21047;DHT22;10682;50.874;3.656;2024-01-15T02:43:05;2.80;99.90
21047;DHT22;10682;50.874;3.656;2024-01-15T02:45:33;2.80;99.90
21047;DHT22;10682;50.874;3.656;2024-01-15T02:48:00;2.90;99.90
21047;DHT22;10682;50.874;3.656;2024-01-15T02:50:27;2.80;99.90
21047;DHT22;10682;50.874;3.656;2024-01-15T02:52:54;2.90;99.90
21047;DHT22;10682;50.874;3.656;2024-01-15T02:55:21;2.90;99.90
21047;DHT22;10682;50.874;3.656;2024-01-15T02:57:49;2.80;99.90
21047;DHT22;10682;50.874;3.656;2024-01-15T03:00:17;2.80;99.90
21047;DHT22;10682;50.874;3.656;2024-01-15T03:02:45;2.80;99.90
21047;DHT22;10682;50.874;3.656;2024-01-15T03:05:14;2.80;99.90
21047;DHT22;10682;50.874;3.656;2024-01-15T03:07:42;2.90;99.90
21047;DHT22;10682;50.874;3.656;2024-01-15T03:10:09;2.90;99.90
21047;DHT22;10682;50.874;3.656;2024-01-15T03:12:37;2.90;99.90
21047;DHT22;10682;50.874;3.656;2024-01-15T03:15:04;2.90;99.90
21047;DHT22;10682;50.874;3.656;2024-01-15T03:17:32;2.90;99.90
21047;DHT22;10682;50.874;3.656;2024-01-15T03:20:00;2.90;99.90
21047;DHT22;10682;50.874;3.656;2024-01-15T03:22:27;2.90;99.90
21047;DHT22;10682;50.874;3.656;2024-01-15T03:24:54;2.90;99.90
21047;DHT22;10682;50.874;3.656;2024-01-15T03:27:24;2.80;99.90
21047;DHT22;10682;50.874;3.656;2024-01-15T03:29:52;2.80;99.90
21047;DHT22;10682;50.874;3.656;2024-01-15T03:32:22;2.80;99.90
21047;DHT22;10682;50.874;3.656;2024-01-15T03:34:49;2.80;99.90
21047;DHT22;10682;50.874;3.656;2024-01-15T03:37:19;2.70;99.90
21047;DHT22;10682;50.874;3.656;2024-01-15T03:39:46;2.70;99.90
21047;DHT22;10682;50.874;3.656;2024-01-15T03:42:13;2.70;99.90
21047;DHT22;10682;50.874;3.656;2024-01-15T03:44:41;2.70;99.90
21047;DHT22;10682;50.874;3.656;2024-01-15T03:47:08;2.60;99.90
21047;DHT22;10682;50.874;3.656;2024-01-15T03:49:36;2.60;99.90
21047;DHT22;10682;50.874;3.656;2024-01-15T03:55:14;2.50;99.90
21047;DHT22;10682;50.874;3.656;2024-01-15T03:57:59;2.50;99.90
21047;DHT22;10682;50.874;3.656;2024-01-15T04:00:26;2.60;99.90
21047;DHT22;10682;50.874;3.656;2024-01-15T04:02:54;2.60;99.90
21047;DHT22;10682;50.874;3.656;2024-01-15T04:05:21;2.60;99.90
21047;DHT22;10682;50.874;3.656;2024-01-15T04:07:48;2.60;99.90
21047;DHT22;10682;50.874;3.656;2024-01-15T04:10:15;2.60;99.90
21047;DHT22;10682;50.874;3.656;2024-01-15T04:12:44;2.50;99.90
21047;DHT22;10682;50.874;3.656;2024-01-15T04:15:14;2.50;99.90
21047;DHT22;10682;50.874;3.656;2024-01-15T04:17:42;2.50;99.90
21047;DHT22;10682;50.874;3.656;2024-01-15T04:20:09;2.40;99.90
21047;DHT22;10682;50.874;3.656;2024-01-15T04:22:37;2.40;99.90
21047;DHT22;10682;50.874;3.656;2024-01-15T04:25:05;2.40;99.90
21047;DHT22;10682;50.874;3.656;2024-01-15T04:27:32;2.40;99.90
21047;DHT22;10682;50.874;3.656;2024-01-15T04:29:59;2.30;99.90
21047;DHT22;10682;50.874;3.656;2024-01-15T04:32:27;2.30;99.90
21047;DHT22;10682;50.874;3.656;2024-01-15T04:34:55;2.30;99.90
21047;DHT22;10682;50.874;3.656;2024-01-15T04:37:22;2.30;99.90
21047;DHT22;10682;50.874;3.656;2024-01-15T04:39:49;2.30;99.90
21047;DHT22;10682;50.874;3.656;2024-01-15T04:42:19;2.30;99.90
21047;DHT22;10682;50.874;3.656;2024-01-15T04:44:47;2.20;99.90
21047;DHT22;10682;50.874;3.656;2024-01-15T04:47:14;2.20;99.90
21047;DHT22;10682;50.874;3.656;2024-01-15T04:49:41;2.20;99.90
21047;DHT22;10682;50.874;3.656;2024-01-15T04:52:08;2.20;99.90
21047;DHT22;10682;50.874;3.656;2024-01-15T04:54:36;2.20;99.90
21047;DHT22;10682;50.874;3.656;2024-01-15T04:57:04;2.30;99.90
21047;DHT22;10682;50.874;3.656;2024-01-15T04:59:31;2.30;99.90
21047;DHT22;10682;50.874;3.656;2024-01-15T05:01:58;2.30;99.90
21047;DHT22;10682;50.874;3.656;2024-01-15T05:04:25;2.40;99.90
21047;DHT22;10682;50.874;3.656;2024-01-15T05:06:53;2.40;99.90
21047;DHT22;10682;50.874;3.656;2024-01-15T05:09:21;2.40;99.90
21047;DHT22;10682;50.874;3.656;2024-01-15T05:11:49;2.40;99.90
21047;DHT22;10682;50.874;3.656;2024-01-15T05:14:16;2.40;99.90
21047;DHT22;10682;50.874;3.656;2024-01-15T05:16:48;2.30;99.90
21047;DHT22;10682;50.874;3.656;2024-01-15T05:19:18;2.30;99.90
21047;DHT22;10682;50.874;3.656;2024-01-15T05:21:45;2.20;99.90
21047;DHT22;10682;50.874;3.656;2024-01-15T05:24:12;2.10;99.90
21047;DHT22;10682;50.874;3.656;2024-01-15T05:26:40;2.00;99.90
21047;DHT22;10682;50.874;3.656;2024-01-15T05:29:07;2.00;99.90
21047;DHT22;10682;50.874;3.656;2024-01-15T05:31:35;2.00;99.90
21047;DHT22;10682;50.874;3.656;2024-01-15T05:34:03;2.00;99.90
21047;DHT22;10682;50.874;3.656;2024-01-15T05:37:03;2.10;99.90
21047;DHT22;10682;50.874;3.656;2024-01-15T05:39:30;2.00;99.90
21047;DHT22;10682;50.874;3.656;2024-01-15T05:42:10;2.00;99.90
21047;DHT22;10682;50.874;3.656;2024-01-15T05:44:37;2.00;99.90
21047;DHT22;10682;50.874;3.656;2024-01-15T05:47:04;2.00;99.90
21047;DHT22;10682;50.874;3.656;2024-01-15T05:49:31;2.00;99.90
21047;DHT22;10682;50.874;3.656;2024-01-15T05:51:59;2.00;99.90
21047;DHT22;10682;50.874;3.656;2024-01-15T05:54:26;2.00;99.90
21047;DHT22;10682;50.874;3.656;2024-01-15T05:56:53;2.00;99.90
21047;DHT22;10682;50.874;3.656;2024-01-15T05:59:20;2.00;99.90
21047;DHT22;10682;50.874;3.656;2024-01-15T06:01:47;2.00;99.90
21047;DHT22;10682;50.874;3.656;2024-01-15T06:04:14;2.00;99.90
21047;DHT22;10682;50.874;3.656;2024-01-15T06:06:42;2.00;99.90
21047;DHT22;10682;50.874;3.656;2024-01-15T06:09:09;2.10;99.90
21047;DHT22;10682;50.874;3.656;2024-01-15T06:11:36;2.10;99.90
21047;DHT22;10682;50.874;3.656;2024-01-15T06:14:03;2.10;99.90
21047;DHT22;10682;50.874;3.656;2024-01-15T06:16:30;2.10;99.90
21047;DHT22;10682;50.874;3.656;2024-01-15T06:18:57;2.10;99.90
21047;DHT22;10682;50.874;3.656;2024-01-15T06:21:25;2.10;99.90
21047;DHT22;10682;50.874;3.656;2024-01-15T06:23:52;2.00;99.90
21047;DHT22;10682;50.874;3.656;2024-01-15T06:26:19;2.00;99.90
21047;DHT22;10682;50.874;3.656;2024-01-15T06:28:46;2.00;99.90
21047;DHT22;10682;50.874;3.656;2024-01-15T06:31:13;2.00;99.90
21047;DHT22;10682;50.874;3.656;2024-01-15T06:33:41;1.90;99.90
21047;DHT22;10682;50.874;3.656;2024-01-15T06:36:08;1.90;99.90
21047;DHT22;10682;50.874;3.656;2024-01-15T06:38:36;1.80;99.90
21047;DHT22;10682;50.874;3.656;2024-01-15T06:41:03;1.70;99.90
21047;DHT22;10682;50.874;3.656;2024-01-15T06:43:30;1.60;99.90
21047;DHT22;10682;50.874;3.656;2024-01-15T06:45:57;1.60;99.90
21047;DHT22;10682;50.874;3.656;2024-01-15T06:48:24;1.60;99.90
21047;DHT22;10682;50.874;3.656;2024-01-15T06:50:52;1.60;99.90
21047;DHT22;10682;50.874;3.656;2024-01-15T06:53:19;1.50;99.90
21047;DHT22;10682;50.874;3.656;2024-01-15T06:55:47;1.50;99.90
21047;DHT22;10682;50.874;3.656;2024-01-15T06:58:15;1.50;99.90
21047;DHT22;10682;50.874;3.656;2024-01-15T07:00:43;1.50;99.90
21047;DHT22;10682;50.874;3.656;2024-01-15T07:03:10;1.50;99.90
21047;DHT22;10682;50.874;3.656;2024-01-15T07:05:37;1.50;99.90
21047;DHT22;10682;50.874;3.656;2024-01-15T07:08:04;1.50;99.90
21047;DHT22;10682;50.874;3.656;2024-01-15T07:10:32;1.50;99.90
21047;DHT22;10682;50.874;3.656;2024-01-15T07:13:03;1.40;99.90
21047;DHT22;10682;50.874;3.656;2024-01-15T07:15:32;1.50;99.90
21047;DHT22;10682;50.874;3.656;2024-01-15T07:18:00;1.50;99.90
21047;DHT22;10682;50.874;3.656;2024-01-15T07:20:27;1.50;99.90
21047;DHT22;10682;50.874;3.656;2024-01-15T07:23:31;1.60;99.90
21047;DHT22;10682;50.874;3.656;2024-01-15T07:26:25;1.60;99.90
21047;DHT22;10682;50.874;3.656;2024-01-15T07:28:52;1.60;99.90
21047;DHT22;10682;50.874;3.656;2024-01-15T07:31:19;1.60;99.90
21047;DHT22;10682;50.874;3.656;2024-01-15T07:33:47;1.60;99.90
21047;DHT22;10682;50.874;3.656;2024-01-15T07:36:14;1.60;99.90
21047;DHT22;10682;50.874;3.656;2024-01-15T07:38:42;1.60;99.90
21047;DHT22;10682;50.874;3.656;2024-01-15T07:41:09;1.60;99.90
21047;DHT22;10682;50.874;3.656;2024-01-15T07:43:37;1.60;99.90
21047;DHT22;10682;50.874;3.656;2024-01-15T07:46:06;1.60;99.90
21047;DHT22;10682;50.874;3.656;2024-01-15T07:48:34;1.60;99.90
21047;DHT22;10682;50.874;3.656;2024-01-15T07:51:01;1.60;99.90
21047;DHT22;10682;50.874;3.656;2024-01-15T07:53:28;1.60;99.90
21047;DHT22;10682;50.874;3.656;2024-01-15T07:55:55;1.60;99.90
21047;DHT22;10682;50.874;3.656;2024-01-15T07:58:22;1.60;99.90
21047;DHT22;10682;50.874;3.656;2024-01-15T08:00:49;1.70;99.90
21047;DHT22;10682;50.874;3.656;2024-01-15T08:03:16;1.60;99.90
21047;DHT22;10682;50.874;3.656;2024-01-15T08:05:43;1.60;99.90
21047;DHT22;10682;50.874;3.656;2024-01-15T08:08:11;1.60;99.90
21047;DHT22;10682;50.874;3.656;2024-01-15T08:10:38;1.70;99.90
21047;DHT22;10682;50.874;3.656;2024-01-15T08:13:05;1.70;99.90
21047;DHT22;10682;50.874;3.656;2024-01-15T08:15:34;1.80;99.90
21047;DHT22;10682;50.874;3.656;2024-01-15T08:18:02;2.20;99.90
21047;DHT22;10682;50.874;3.656;2024-01-15T08:20:29;2.50;99.90
21047;DHT22;10682;50.874;3.656;2024-01-15T08:22:57;2.70;99.90
21047;DHT22;10682;50.874;3.656;2024-01-15T08:25:25;2.80;99.90
21047;DHT22;10682;50.874;3.656;2024-01-15T08:27:53;2.60;99.90
21047;DHT22;10682;50.874;3.656;2024-01-15T08:30:20;2.60;99.90
21047;DHT22;10682;50.874;3.656;2024-01-15T08:32:51;2.90;99.90
21047;DHT22;10682;50.874;3.656;2024-01-15T08:35:18;3.00;99.90
21047;DHT22;10682;50.874;3.656;2024-01-15T08:37:49;3.10;99.90
21047;DHT22;10682;50.874;3.656;2024-01-15T08:40:17;3.50;99.90
21047;DHT22;10682;50.874;3.656;2024-01-15T08:42:44;3.90;99.90
21047;DHT22;10682;50.874;3.656;2024-01-15T08:45:14;4.20;99.90
21047;DHT22;10682;50.874;3.656;2024-01-15T08:47:43;4.30;99.90
21047;DHT22;10682;50.874;3.656;2024-01-15T08:50:10;4.00;99.90
21047;DHT22;10682;50.874;3.656;2024-01-15T08:52:37;4.20;99.90
21047;DHT22;10682;50.874;3.656;2024-01-15T08:55:04;4.50;99.90
21047;DHT22;10682;50.874;3.656;2024-01-15T08:57:31;4.90;99.90
21047;DHT22;10682;50.874;3.656;2024-01-15T08:59:58;5.30;99.90
21047;DHT22;10682;50.874;3.656;2024-01-15T09:02:26;5.20;99.90
21047;DHT22;10682;50.874;3.656;2024-01-15T09:04:53;5.50;99.90
21047;DHT22;10682;50.874;3.656;2024-01-15T09:07:34;5.70;99.90
21047;DHT22;10682;50.874;3.656;2024-01-15T09:13:13;5.10;99.90
21047;DHT22;10682;50.874;3.656;2024-01-15T09:15:40;5.20;99.90
21047;DHT22;10682;50.874;3.656;2024-01-15T09:18:09;5.20;99.90
21047;DHT22;10682;50.874;3.656;2024-01-15T09:20:36;5.40;99.90
21047;DHT22;10682;50.874;3.656;2024-01-15T09:23:05;5.50;99.90
21047;DHT22;10682;50.874;3.656;2024-01-15T09:25:32;5.50;99.90
21047;DHT22;10682;50.874;3.656;2024-01-15T09:27:59;5.60;99.90
21047;DHT22;10682;50.874;3.656;2024-01-15T09:30:26;5.70;99.90
21047;DHT22;10682;50.874;3.656;2024-01-15T09:32:53;5.40;99.90
21047;DHT22;10682;50.874;3.656;2024-01-15T09:35:20;4.90;99.90
21047;DHT22;10682;50.874;3.656;2024-01-15T09:37:50;4.80;99.90
21047;DHT22;10682;50.874;3.656;2024-01-15T09:40:17;4.70;99.90
21047;DHT22;10682;50.874;3.656;2024-01-15T09:42:47;4.30;99.90
21047;DHT22;10682;50.874;3.656;2024-01-15T09:45:14;4.00;99.90
21047;DHT22;10682;50.874;3.656;2024-01-15T09:47:42;3.70;99.90
21047;DHT22;10682;50.874;3.656;2024-01-15T09:50:13;3.50;99.90
21047;DHT22;10682;50.874;3.656;2024-01-15T09:52:43;3.30;99.90
21047;DHT22;10682;50.874;3.656;2024-01-15T09:55:12;3.20;99.90
21047;DHT22;10682;50.874;3.656;2024-01-15T09:57:40;3.20;99.90
21047;DHT22;10682;50.874;3.656;2024-01-15T10:00:08;3.40;99.90
21047;DHT22;10682;50.874;3.656;2024-01-15T10:02:38;3.60;99.90
21047;DHT22;10682;50.874;3.656;2024-01-15T10:05:05;3.70;99.90
21047;DHT22;10682;50.874;3.656;2024-01-15T10:07:35;3.80;99.90
21047;DHT22;10682;50.874;3.656;2024-01-15T10:10:04;3.90;99.90
21047;DHT22;10682;50.874;3.656;2024-01-15T10:12:32;3.90;99.90
21047;DHT22;10682;50.874;3.656;2024-01-15T10:15:00;4.00;99.90
21047;DHT22;10682;50.874;3.656;2024-01-15T10:17:28;3.90;99.90
21047;DHT22;10682;50.874;3.656;2024-01-15T10:19:55;3.90;99.90
21047;DHT22;10682;50.874;3.656;2024-01-15T10:22:23;4.00;99.90
21047;DHT22;10682;50.874;3.656;2024-01-15T10:24:51;4.00;99.90
21047;DHT22;10682;50.874;3.656;2024-01-15T10:27:18;4.00;99.90
21047;DHT22;10682;50.874;3.656;2024-01-15T10:29:45;4.10;99.90
21047;DHT22;10682;50.874;3.656;2024-01-15T10:32:12;4.10;99.90
21047;DHT22;10682;50.874;3.656;2024-01-15T10:34:42;4.10;99.90
21047;DHT22;10682;50.874;3.656;2024-01-15T10:37:11;4.10;99.90
21047;DHT22;10682;50.874;3.656;2024-01-15T10:39:38;4.10;99.90
21047;DHT22;10682;50.874;3.656;2024-01-15T10:42:06;4.20;99.90
21047;DHT22;10682;50.874;3.656;2024-01-15T10:44:34;4.20;99.90
21047;DHT22;10682;50.874;3.656;2024-01-15T10:47:02;4.30;99.90
21047;DHT22;10682;50.874;3.656;2024-01-15T10:49:30;4.40;99.90
21047;DHT22;10682;50.874;3.656;2024-01-15T10:52:23;4.50;99.90
21047;DHT22;10682;50.874;3.656;2024-01-15T10:55:23;4.50;99.90
21047;DHT22;10682;50.874;3.656;2024-01-15T10:57:52;4.50;99.90
21047;DHT22;10682;50.874;3.656;2024-01-15T11:00:20;4.60;99.90
21047;DHT22;10682;50.874;3.656;2024-01-15T11:02:47;4.50;99.90
21047;DHT22;10682;50.874;3.656;2024-01-15T11:05:15;4.40;99.90
21047;DHT22;10682;50.874;3.656;2024-01-15T11:07:44;4.30;99.90
21047;DHT22;10682;50.874;3.656;2024-01-15T11:13:09;3.90;99.90
21047;DHT22;10682;50.874;3.656;2024-01-15T11:16:03;3.80;99.90
21047;DHT22;10682;50.874;3.656;2024-01-15T11:21:26;3.40;99.90
21047;DHT22;10682;50.874;3.656;2024-01-15T11:24:00;3.30;99.90
21047;DHT22;10682;50.874;3.656;2024-01-15T11:26:44;3.30;99.90
21047;DHT22;10682;50.874;3.656;2024-01-15T11:40:35;3.50;99.90
21047;DHT22;10682;50.874;3.656;2024-01-15T11:43:05;3.70;99.90
21047;DHT22;10682;50.874;3.656;2024-01-15T11:45:37;4.00;99.90
21047;DHT22;10682;50.874;3.656;2024-01-15T11:48:13;4.30;99.90
21047;DHT22;10682;50.874;3.656;2024-01-15T11:50:43;4.40;99.90
21047;DHT22;10682;50.874;3.656;2024-01-15T11:53:22;4.40;99.90
21047;DHT22;10682;50.874;3.656;2024-01-15T11:55:58;4.20;99.90
21047;DHT22;10682;50.874;3.656;2024-01-15T11:58:26;4.30;99.90
21047;DHT22;10682;50.874;3.656;2024-01-15T12:00:53;4.30;99.90
21047;DHT22;10682;50.874;3.656;2024-01-15T12:03:22;4.40;99.90
21047;DHT22;10682;50.874;3.656;2024-01-15T12:05:52;4.30;99.90
21047;DHT22;10682;50.874;3.656;2024-01-15T12:08:24;4.20;99.90
21047;DHT22;10682;50.874;3.656;2024-01-15T12:10:53;4.10;99.90
21047;DHT22;10682;50.874;3.656;2024-01-15T12:13:20;4.20;99.90
21047;DHT22;10682;50.874;3.656;2024-01-15T12:15:48;4.20;99.90
21047;DHT22;10682;50.874;3.656;2024-01-15T12:18:17;4.20;99.90
21047;DHT22;10682;50.874;3.656;2024-01-15T12:20:46;4.20;99.90
21047;DHT22;10682;50.874;3.656;2024-01-15T12:23:14;4.20;99.90
21047;DHT22;10682;50.874;3.656;2024-01-15T12:25:42;4.10;99.90
21047;DHT22;10682;50.874;3.656;2024-01-15T12:28:10;4.10;99.90
21047;DHT22;10682;50.874;3.656;2024-01-15T12:30:37;4.00;99.90
21047;DHT22;10682;50.874;3.656;2024-01-15T12:33:05;4.00;99.90
21047;DHT22;10682;50.874;3.656;2024-01-15T12:35:35;4.10;99.90
21047;DHT22;10682;50.874;3.656;2024-01-15T12:41:40;4.10;99.90
21047;DHT22;10682;50.874;3.656;2024-01-15T12:44:20;4.00;99.90
21047;DHT22;10682;50.874;3.656;2024-01-15T12:46:48;4.00;99.90
21047;DHT22;10682;50.874;3.656;2024-01-15T12:49:15;4.00;99.90
21047;DHT22;10682;50.874;3.656;2024-01-15T12:51:42;3.90;99.90
21047;DHT22;10682;50.874;3.656;2024-01-15T12:54:09;3.90;99.90
21047;DHT22;10682;50.874;3.656;2024-01-15T12:56:36;3.90;99.90
21047;DHT22;10682;50.874;3.656;2024-01-15T12:59:03;4.00;99.90
21047;DHT22;10682;50.874;3.656;2024-01-15T13:01:31;4.10;99.90
21047;DHT22;10682;50.874;3.656;2024-01-15T13:03:59;4.30;99.90
21047;DHT22;10682;50.874;3.656;2024-01-15T13:06:27;4.50;99.90
21047;DHT22;10682;50.874;3.656;2024-01-15T13:08:54;4.60;99.90
21047;DHT22;10682;50.874;3.656;2024-01-15T13:11:21;4.60;99.90
21047;DHT22;10682;50.874;3.656;2024-01-15T13:13:48;4.60;99.90
21047;DHT22;10682;50.874;3.656;2024-01-15T13:16:15;4.60;99.90
21047;DHT22;10682;50.874;3.656;2024-01-15T13:18:42;4.80;99.90
21047;DHT22;10682;50.874;3.656;2024-01-15T13:21:10;4.90;99.90
21047;DHT22;10682;50.874;3.656;2024-01-15T13:23:37;5.00;99.90
21047;DHT22;10682;50.874;3.656;2024-01-15T13:26:04;5.00;99.90
21047;DHT22;10682;50.874;3.656;2024-01-15T13:28:31;4.80;99.90
21047;DHT22;10682;50.874;3.656;2024-01-15T13:30:58;4.80;99.90
21047;DHT22;10682;50.874;3.656;2024-01-15T13:33:26;4.70;99.90
21047;DHT22;10682;50.874;3.656;2024-01-15T13:35:53;4.60;99.90
21047;DHT22;10682;50.874;3.656;2024-01-15T13:38:20;4.50;99.90
21047;DHT22;10682;50.874;3.656;2024-01-15T13:40:47;4.40;99.90
21047;DHT22;10682;50.874;3.656;2024-01-15T13:43:14;4.30;99.90
21047;DHT22;10682;50.874;3.656;2024-01-15T13:45:42;4.20;99.90
21047;DHT22;10682;50.874;3.656;2024-01-15T13:48:09;4.10;99.90
21047;DHT22;10682;50.874;3.656;2024-01-15T13:50:36;4.10;99.90
21047;DHT22;10682;50.874;3.656;2024-01-15T13:53:04;4.10;99.90
21047;DHT22;10682;50.874;3.656;2024-01-15T13:55:31;4.20;99.90
21047;DHT22;10682;50.874;3.656;2024-01-15T13:57:59;4.10;99.90
21047;DHT22;10682;50.874;3.656;2024-01-15T14:00:26;4.10;99.90
21047;DHT22;10682;50.874;3.656;2024-01-15T14:02:54;4.00;99.90
21047;DHT22;10682;50.874;3.656;2024-01-15T14:05:21;3.90;99.90
21047;DHT22;10682;50.874;3.656;2024-01-15T14:07:48;3.90;99.90
21047;DHT22;10682;50.874;3.656;2024-01-15T14:10:15;3.70;99.90
21047;DHT22;10682;50.874;3.656;2024-01-15T14:12:43;3.70;99.90
21047;DHT22;10682;50.874;3.656;2024-01-15T14:15:10;3.60;99.90
21047;DHT22;10682;50.874;3.656;2024-01-15T14:17:37;3.50;99.90
21047;DHT22;10682;50.874;3.656;2024-01-15T14:20:05;3.50;99.90
21047;DHT22;10682;50.874;3.656;2024-01-15T14:25:40;3.60;99.90
21047;DHT22;10682;50.874;3.656;2024-01-15T14:28:19;3.70;99.90
21047;DHT22;10682;50.874;3.656;2024-01-15T14:30:46;3.60;99.90
21047;DHT22;10682;50.874;3.656;2024-01-15T14:33:13;3.50;99.90
21047;DHT22;10682;50.874;3.656;2024-01-15T14:35:41;3.50;99.90
21047;DHT22;10682;50.874;3.656;2024-01-15T14:38:08;3.40;99.90
21047;DHT22;10682;50.874;3.656;2024-01-15T14:40:35;3.40;99.90
21047;DHT22;10682;50.874;3.656;2024-01-15T14:43:04;3.40;99.90
21047;DHT22;10682;50.874;3.656;2024-01-15T14:45:31;3.60;99.90
21047;DHT22;10682;50.874;3.656;2024-01-15T14:47:58;3.70;99.90
21047;DHT22;10682;50.874;3.656;2024-01-15T14:50:25;3.70;99.90
21047;DHT22;10682;50.874;3.656;2024-01-15T14:52:52;3.60;99.90
21047;DHT22;10682;50.874;3.656;2024-01-15T14:55:20;3.60;99.90
21047;DHT22;10682;50.874;3.656;2024-01-15T14:57:50;3.60;99.90
21047;DHT22;10682;50.874;3.656;2024-01-15T15:00:17;3.60;99.90
21047;DHT22;10682;50.874;3.656;2024-01-15T15:02:44;3.60;99.90
21047;DHT22;10682;50.874;3.656;2024-01-15T15:05:11;3.70;99.90
21047;DHT22;10682;50.874;3.656;2024-01-15T15:07:41;3.60;99.90
21047;DHT22;10682;50.874;3.656;2024-01-15T15:10:08;3.60;99.90
21047;DHT22;10682;50.874;3.656;2024-01-15T15:12:37;3.60;99.90
21047;DHT22;10682;50.874;3.656;2024-01-15T15:15:05;3.50;99.90
21047;DHT22;10682;50.874;3.656;2024-01-15T15:17:38;3.60;99.90
21047;DHT22;10682;50.874;3.656;2024-01-15T15:20:08;3.50;99.90
21047;DHT22;10682;50.874;3.656;2024-01-15T15:22:36;3.50;99.90
21047;DHT22;10682;50.874;3.656;2024-01-15T15:25:03;3.50;99.90
21047;DHT22;10682;50.874;3.656;2024-01-15T15:27:35;3.50;99.90
21047;DHT22;10682;50.874;3.656;2024-01-15T15:30:03;3.50;99.90
21047;DHT22;10682;50.874;3.656;2024-01-15T15:32:30;3.50;99.90
21047;DHT22;10682;50.874;3.656;2024-01-15T15:34:58;3.50;99.90
21047;DHT22;10682;50.874;3.656;2024-01-15T15:37:25;3.50;99.90
21047;DHT22;10682;50.874;3.656;2024-01-15T15:39:53;3.50;99.90
21047;DHT22;10682;50.874;3.656;2024-01-15T15:42:22;3.50;99.90
21047;DHT22;10682;50.874;3.656;2024-01-15T15:44:50;3.50;99.90
21047;DHT22;10682;50.874;3.656;2024-01-15T15:47:23;3.50;99.90
21047;DHT22;10682;50.874;3.656;2024-01-15T15:49:51;3.40;99.90
21047;DHT22;10682;50.874;3.656;2024-01-15T15:52:18;3.40;99.90
21047;DHT22;10682;50.874;3.656;2024-01-15T15:54:45;3.30;99.90
21047;DHT22;10682;50.874;3.656;2024-01-15T15:57:12;3.20;99.90
21047;DHT22;10682;50.874;3.656;2024-01-15T15:59:39;3.10;99.90
21047;DHT22;10682;50.874;3.656;2024-01-15T16:02:07;3.00;99.90
21047;DHT22;10682;50.874;3.656;2024-01-15T16:04:35;2.90;99.90
21047;DHT22;10682;50.874;3.656;2024-01-15T16:07:10;2.90;99.90
21047;DHT22;10682;50.874;3.656;2024-01-15T16:13:48;2.80;99.90
21047;DHT22;10682;50.874;3.656;2024-01-15T16:16:15;2.70;99.90
21047;DHT22;10682;50.874;3.656;2024-01-15T16:19:03;2.60;99.90
21047;DHT22;10682;50.874;3.656;2024-01-15T16:21:50;2.60;99.90
21047;DHT22;10682;50.874;3.656;2024-01-15T16:24:37;2.60;99.90
21047;DHT22;10682;50.874;3.656;2024-01-15T16:27:18;2.50;99.90
21047;DHT22;10682;50.874;3.656;2024-01-15T16:29:45;2.50;99.90
21047;DHT22;10682;50.874;3.656;2024-01-15T16:32:12;2.50;99.90
21047;DHT22;10682;50.874;3.656;2024-01-15T16:34:39;2.50;99.90
21047;DHT22;10682;50.874;3.656;2024-01-15T16:37:06;2.50;99.90
21047;DHT22;10682;50.874;3.656;2024-01-15T16:39:34;2.50;99.90